createdAt,value
2022-10-25T20:40:15.976Z,11.90
2022-10-25T20:42:48.276Z,11.80
2022-10-25T20:45:20.485Z,11.70
2022-10-25T20:47:54.268Z,10.90
2022-10-25T20:50:28.334Z,11.00
2022-10-25T20:53:15.677Z,11.10
2022-10-25T20:55:49.344Z,11.00
2022-10-25T20:58:25.776Z,10.20
2022-10-25T21:00:59.431Z,12.00
2022-10-25T21:03:32.873Z,9.80
2022-10-25T21:06:08.136Z,10.80
2022-10-25T21:08:40.499Z,10.50
2022-10-25T21:11:14.189Z,9.90
2022-10-25T21:13:48.356Z,10.70
2022-10-25T21:16:20.719Z,9.80
2022-10-25T21:18:52.715Z,10.80
2022-10-25T21:21:24.695Z,10.20
2022-10-25T21:23:59.473Z,10.80
2022-10-25T21:26:31.632Z,10.80
2022-10-25T21:29:03.518Z,10.00
2022-10-25T21:31:35.475Z,10.30
2022-10-25T21:34:08.702Z,10.00
2022-10-25T21:36:40.759Z,10.10
2022-10-25T21:39:12.666Z,8.70
2022-10-25T21:41:44.667Z,9.50
2022-10-25T21:44:16.714Z,10.60
2022-10-25T21:46:48.806Z,11.40
2022-10-25T21:49:20.692Z,11.00
2022-10-25T21:51:52.578Z,11.10
2022-10-25T21:54:24.922Z,10.50
2022-10-25T21:56:59.377Z,10.70
2022-10-25T21:59:31.851Z,10.20
2022-10-25T22:02:04.688Z,10.70
2022-10-25T22:04:36.880Z,11.20
2022-10-25T22:07:09.034Z,13.00
2022-10-25T22:09:41.019Z,12.40
2022-10-25T22:12:12.987Z,12.90
2022-10-25T22:14:44.944Z,12.80
2022-10-25T22:17:17.546Z,12.20
2022-10-25T22:19:49.513Z,13.20
2022-10-25T22:22:21.522Z,13.80
2022-10-25T22:24:53.439Z,14.10
2022-10-25T22:27:25.523Z,14.70
2022-10-25T22:29:57.599Z,14.60
2022-10-25T22:32:30.493Z,13.80
2022-10-25T22:35:02.690Z,13.20
2022-10-25T22:37:35.174Z,13.40
2022-10-25T22:40:11.463Z,12.70
2022-10-25T22:42:43.655Z,12.60
2022-10-25T22:45:19.090Z,13.20
2022-10-25T22:47:53.695Z,13.10
2022-10-25T22:50:25.811Z,12.50
2022-10-25T22:52:57.982Z,11.80
2022-10-25T22:55:30.058Z,12.00
2022-10-25T22:58:02.578Z,10.90
2022-10-25T23:00:39.186Z,11.70
2022-10-25T23:03:11.527Z,11.70
2022-10-25T23:05:43.905Z,11.90
2022-10-25T23:08:16.429Z,13.60
2022-10-25T23:10:50.202Z,12.60
2022-10-25T23:13:22.280Z,12.50
2022-10-25T23:15:54.485Z,12.30
2022-10-25T23:18:27.191Z,12.10
2022-10-25T23:21:00.849Z,10.60
2022-10-25T23:23:38.178Z,11.60
2022-10-25T23:29:25.832Z,11.90
2022-10-25T23:31:58.137Z,11.70
2022-10-25T23:37:43.555Z,12.20
2022-10-25T23:40:16.426Z,12.30
2022-10-25T23:42:48.550Z,12.20
2022-10-25T23:45:20.812Z,11.90
2022-10-25T23:47:52.911Z,11.20
2022-10-25T23:50:25.017Z,11.50
2022-10-25T23:52:57.067Z,11.80
2022-10-25T23:55:29.123Z,10.70
2022-10-25T23:58:01.249Z,11.50
